Airfield :
LOGIN :

Register | Disclaimer

   EN    FR    IT 

 










Legend :    VFR   Marginal VFR   IFR   Intensive IFR   Very Intensive IFR
Visi :
Ceiling :
>= 8 km
>= 3000ft
5 to 8 km
1000 to 3000 ft
1500m to 5 km
500 to 1000 ft
800 to 1500m
200 to 500 ft
< 800m
< 200 ft
Symbols :   Thunderstorms  Fog  Heavy snow  Heavy precipitations  Wind > 20 kt
SIGMETs :     Misc.  Thunderstorms  Icing  Turbulence  Mountain Waves  Volcanic Ashes






- Airport Elevation : 49 ft
- IATA code : GLZ


EHGR - Gilze-Rijen Airbase

CURRENT METAR :
  • 092255Z AUTO 25005KT 240V300 9999 FEW040 04/02 Q1021 BLU

EXPIRED METARs :
  • 092225Z AUTO 27005KT 9999 NCD 05/02 Q1020 BLU RMK TS INFO NOT AVBL
  • 092155Z AUTO 28007KT 9999 FEW060 04/02 Q1020 BLU 33013KT 9999 FEW032 TEMPO 7000 -SHRA SCT020
  • 092125Z AUTO 30008KT 260V340 9999 FEW015CB BKN036 OVC057 05/03 Q1019 BLU 33013KT 9999 FEW032 TEMPO 7000 -SHRA SCT020
  • 092055Z AUTO 28007KT 9999 FEW046 03/01 Q1019 BLU 33013KT 9999 FEW032 TEMPO 7000 -SHRA SCT020
  • 092025Z AUTO 30008KT 270V330 9999 NCD 04/02 Q1018 BLU 33013KT 9999 FEW032 TEMPO 7000 -SHRA SCT020

TAF TAF EHGR
Valid from the 09 at 18:00 until the 10 at 06:00 UTC


091740Z 0918/1006 33012G22KT 9999 SCT035
TEMPO 0918/0920 SCT020CB BKN030
BECMG 0921/0924 32010KT
BECMG 1003/1006 22005KT



MET'MAP, your aeronautical weather chart ! - Copyright ORBIFLY December 2007 - Disclaimer

ORBIFLY MET'MAP TEAM :

Programming & Development : Alexandra Zaïnal
Concept & original design : Baudouin d'Aumeries
Assistance for programming : Marc-Olivier Méhu
Technical & hardware support : Manuel Goepfert

Contact : metmap@orbifly.com




SOURCES & CREDITS :

   NOAA